sensor_id;sensor_type;location;lat;lon;timestamp;temperature;humidity
24638;DHT22;12773;50.162;8.548;2023-03-20T00:02:30;11.80;99.90
24638;DHT22;12773;50.162;8.548;2023-03-20T00:05:20;11.70;99.90
24638;DHT22;12773;50.162;8.548;2023-03-20T00:08:08;11.70;99.90
24638;DHT22;12773;50.162;8.548;2023-03-20T00:10:56;11.70;99.90
24638;DHT22;12773;50.162;8.548;2023-03-20T00:13:43;11.70;99.90
24638;DHT22;12773;50.162;8.548;2023-03-20T00:16:39;11.70;99.90
24638;DHT22;12773;50.162;8.548;2023-03-20T00:19:27;11.70;99.90
24638;DHT22;12773;50.162;8.548;2023-03-20T00:22:16;11.60;99.90
24638;DHT22;12773;50.162;8.548;2023-03-20T00:25:03;11.60;99.90
24638;DHT22;12773;50.162;8.548;2023-03-20T00:27:51;11.60;99.90
24638;DHT22;12773;50.162;8.548;2023-03-20T00:30:38;11.60;99.90
24638;DHT22;12773;50.162;8.548;2023-03-20T00:33:25;11.60;99.90
24638;DHT22;12773;50.162;8.548;2023-03-20T00:36:14;11.60;99.90
24638;DHT22;12773;50.162;8.548;2023-03-20T00:39:01;11.60;99.90
24638;DHT22;12773;50.162;8.548;2023-03-20T00:42:03;11.70;99.90
24638;DHT22;12773;50.162;8.548;2023-03-20T00:44:51;11.70;99.90
24638;DHT22;12773;50.162;8.548;2023-03-20T00:47:40;11.80;99.90
24638;DHT22;12773;50.162;8.548;2023-03-20T00:50:29;12.00;99.90
24638;DHT22;12773;50.162;8.548;2023-03-20T00:53:16;12.10;99.90
24638;DHT22;12773;50.162;8.548;2023-03-20T00:56:04;12.20;99.90
24638;DHT22;12773;50.162;8.548;2023-03-20T00:58:51;12.30;99.90
24638;DHT22;12773;50.162;8.548;2023-03-20T01:01:38;12.30;99.90
24638;DHT22;12773;50.162;8.548;2023-03-20T01:04:30;12.30;99.90
24638;DHT22;12773;50.162;8.548;2023-03-20T01:07:16;12.40;99.90
24638;DHT22;12773;50.162;8.548;2023-03-20T01:10:05;12.40;99.90
24638;DHT22;12773;50.162;8.548;2023-03-20T01:12:54;12.50;99.90
24638;DHT22;12773;50.162;8.548;2023-03-20T01:15:43;12.50;99.90
24638;DHT22;12773;50.162;8.548;2023-03-20T01:18:30;12.50;99.90
24638;DHT22;12773;50.162;8.548;2023-03-20T01:21:19;12.50;99.90
24638;DHT22;12773;50.162;8.548;2023-03-20T01:24:06;12.60;99.90
24638;DHT22;12773;50.162;8.548;2023-03-20T01:26:54;12.60;99.90
24638;DHT22;12773;50.162;8.548;2023-03-20T01:29:41;12.60;99.90
24638;DHT22;12773;50.162;8.548;2023-03-20T01:32:29;12.60;99.90
24638;DHT22;12773;50.162;8.548;2023-03-20T01:35:24;12.60;99.90
24638;DHT22;12773;50.162;8.548;2023-03-20T01:38:18;12.60;99.90
24638;DHT22;12773;50.162;8.548;2023-03-20T01:41:13;12.60;99.90
24638;DHT22;12773;50.162;8.548;2023-03-20T01:44:12;12.50;99.90
24638;DHT22;12773;50.162;8.548;2023-03-20T01:46:52;12.50;99.90
24638;DHT22;12773;50.162;8.548;2023-03-20T01:53:21;12.40;99.90
24638;DHT22;12773;50.162;8.548;2023-03-20T01:56:10;12.40;99.90
24638;DHT22;12773;50.162;8.548;2023-03-20T01:59:11;12.30;99.90
24638;DHT22;12773;50.162;8.548;2023-03-20T02:01:54;12.40;99.90
24638;DHT22;12773;50.162;8.548;2023-03-20T02:04:44;12.20;99.90
24638;DHT22;12773;50.162;8.548;2023-03-20T02:07:34;12.20;99.90
24638;DHT22;12773;50.162;8.548;2023-03-20T02:10:22;12.20;99.90
24638;DHT22;12773;50.162;8.548;2023-03-20T02:13:09;12.20;99.90
24638;DHT22;12773;50.162;8.548;2023-03-20T02:18:48;12.20;99.90
24638;DHT22;12773;50.162;8.548;2023-03-20T02:27:38;12.20;99.90
24638;DHT22;12773;50.162;8.548;2023-03-20T02:33:52;12.20;99.90
24638;DHT22;12773;50.162;8.548;2023-03-20T02:36:44;12.10;99.90
24638;DHT22;12773;50.162;8.548;2023-03-20T02:45:56;12.00;99.90
24638;DHT22;12773;50.162;8.548;2023-03-20T02:48:53;12.10;99.90
24638;DHT22;12773;50.162;8.548;2023-03-20T02:51:47;12.10;99.90
24638;DHT22;12773;50.162;8.548;2023-03-20T03:01:10;12.00;99.90
24638;DHT22;12773;50.162;8.548;2023-03-20T03:04:00;12.00;99.90
24638;DHT22;12773;50.162;8.548;2023-03-20T03:06:50;11.90;99.90
24638;DHT22;12773;50.162;8.548;2023-03-20T03:12:55;11.90;99.90
24638;DHT22;12773;50.162;8.548;2023-03-20T03:15:46;11.80;99.90
24638;DHT22;12773;50.162;8.548;2023-03-20T03:18:34;11.80;99.90
24638;DHT22;12773;50.162;8.548;2023-03-20T03:21:24;11.80;99.90
24638;DHT22;12773;50.162;8.548;2023-03-20T03:27:26;11.70;99.90
24638;DHT22;12773;50.162;8.548;2023-03-20T03:30:17;11.80;99.90
24638;DHT22;12773;50.162;8.548;2023-03-20T03:33:27;11.90;99.90
24638;DHT22;12773;50.162;8.548;2023-03-20T03:36:21;11.90;99.90
24638;DHT22;12773;50.162;8.548;2023-03-20T03:39:29;12.00;99.90
24638;DHT22;12773;50.162;8.548;2023-03-20T03:48:31;11.60;99.90
24638;DHT22;12773;50.162;8.548;2023-03-20T03:51:22;11.60;99.90
24638;DHT22;12773;50.162;8.548;2023-03-20T03:54:12;11.60;99.90
24638;DHT22;12773;50.162;8.548;2023-03-20T03:57:01;11.70;99.90
24638;DHT22;12773;50.162;8.548;2023-03-20T03:59:51;11.80;99.90
24638;DHT22;12773;50.162;8.548;2023-03-20T04:02:40;11.90;99.90
24638;DHT22;12773;50.162;8.548;2023-03-20T04:05:29;12.00;99.90
24638;DHT22;12773;50.162;8.548;2023-03-20T04:08:18;12.10;99.90
24638;DHT22;12773;50.162;8.548;2023-03-20T04:11:07;12.10;99.90
24638;DHT22;12773;50.162;8.548;2023-03-20T04:13:55;12.10;99.90
24638;DHT22;12773;50.162;8.548;2023-03-20T04:16:42;12.20;99.90
24638;DHT22;12773;50.162;8.548;2023-03-20T04:19:30;12.20;99.90
24638;DHT22;12773;50.162;8.548;2023-03-20T04:22:17;12.20;99.90
24638;DHT22;12773;50.162;8.548;2023-03-20T04:25:05;12.20;99.90
24638;DHT22;12773;50.162;8.548;2023-03-20T04:27:53;12.20;99.90
24638;DHT22;12773;50.162;8.548;2023-03-20T04:30:41;12.20;99.90
24638;DHT22;12773;50.162;8.548;2023-03-20T04:33:29;12.30;99.90
24638;DHT22;12773;50.162;8.548;2023-03-20T04:36:16;12.20;99.90
24638;DHT22;12773;50.162;8.548;2023-03-20T04:39:03;12.20;99.90
24638;DHT22;12773;50.162;8.548;2023-03-20T04:41:51;12.10;99.90
24638;DHT22;12773;50.162;8.548;2023-03-20T04:44:38;12.20;99.90
24638;DHT22;12773;50.162;8.548;2023-03-20T04:47:25;12.20;99.90
24638;DHT22;12773;50.162;8.548;2023-03-20T04:50:13;12.20;99.90
24638;DHT22;12773;50.162;8.548;2023-03-20T04:53:00;12.20;99.90
24638;DHT22;12773;50.162;8.548;2023-03-20T04:55:47;12.20;99.90
24638;DHT22;12773;50.162;8.548;2023-03-20T04:58:36;12.10;99.90
24638;DHT22;12773;50.162;8.548;2023-03-20T05:01:23;12.10;99.90
24638;DHT22;12773;50.162;8.548;2023-03-20T05:04:11;12.10;99.90
24638;DHT22;12773;50.162;8.548;2023-03-20T05:06:59;12.00;99.90
24638;DHT22;12773;50.162;8.548;2023-03-20T05:09:46;12.00;99.90
24638;DHT22;12773;50.162;8.548;2023-03-20T05:12:34;12.00;99.90
24638;DHT22;12773;50.162;8.548;2023-03-20T05:15:21;12.00;99.90
24638;DHT22;12773;50.162;8.548;2023-03-20T05:18:08;11.90;99.90
24638;DHT22;12773;50.162;8.548;2023-03-20T05:20:56;12.00;99.90
24638;DHT22;12773;50.162;8.548;2023-03-20T05:23:43;12.00;99.90
24638;DHT22;12773;50.162;8.548;2023-03-20T05:26:31;12.10;99.90
24638;DHT22;12773;50.162;8.548;2023-03-20T05:29:18;12.10;99.90
24638;DHT22;12773;50.162;8.548;2023-03-20T05:32:06;12.10;99.90
24638;DHT22;12773;50.162;8.548;2023-03-20T05:34:53;12.10;99.90
24638;DHT22;12773;50.162;8.548;2023-03-20T05:37:40;12.10;99.90
24638;DHT22;12773;50.162;8.548;2023-03-20T05:40:28;12.20;99.90
24638;DHT22;12773;50.162;8.548;2023-03-20T05:43:15;12.20;99.90
24638;DHT22;12773;50.162;8.548;2023-03-20T05:46:02;12.30;99.90
24638;DHT22;12773;50.162;8.548;2023-03-20T05:48:49;12.30;99.90
24638;DHT22;12773;50.162;8.548;2023-03-20T05:51:36;12.30;99.90
24638;DHT22;12773;50.162;8.548;2023-03-20T05:54:24;12.20;99.90
24638;DHT22;12773;50.162;8.548;2023-03-20T05:57:11;12.30;99.90
24638;DHT22;12773;50.162;8.548;2023-03-20T05:59:58;12.20;99.90
24638;DHT22;12773;50.162;8.548;2023-03-20T06:02:46;12.20;99.90
24638;DHT22;12773;50.162;8.548;2023-03-20T06:05:34;12.30;99.90
24638;DHT22;12773;50.162;8.548;2023-03-20T06:08:22;12.30;99.90
24638;DHT22;12773;50.162;8.548;2023-03-20T06:11:10;12.30;99.90
24638;DHT22;12773;50.162;8.548;2023-03-20T06:13:57;12.30;99.90
24638;DHT22;12773;50.162;8.548;2023-03-20T06:16:45;12.30;99.90
24638;DHT22;12773;50.162;8.548;2023-03-20T06:19:32;12.40;99.90
24638;DHT22;12773;50.162;8.548;2023-03-20T06:22:20;12.40;99.90
24638;DHT22;12773;50.162;8.548;2023-03-20T06:25:07;12.50;99.90
24638;DHT22;12773;50.162;8.548;2023-03-20T06:27:54;12.50;99.90
24638;DHT22;12773;50.162;8.548;2023-03-20T06:30:43;12.40;99.90
24638;DHT22;12773;50.162;8.548;2023-03-20T06:33:30;12.40;99.90
24638;DHT22;12773;50.162;8.548;2023-03-20T06:36:18;12.40;99.90
24638;DHT22;12773;50.162;8.548;2023-03-20T06:39:05;12.40;99.90
24638;DHT22;12773;50.162;8.548;2023-03-20T06:41:53;12.50;99.90
24638;DHT22;12773;50.162;8.548;2023-03-20T06:44:40;12.60;99.90
24638;DHT22;12773;50.162;8.548;2023-03-20T06:47:28;12.60;99.90
24638;DHT22;12773;50.162;8.548;2023-03-20T06:50:15;12.70;99.90
24638;DHT22;12773;50.162;8.548;2023-03-20T06:53:03;12.70;99.90
24638;DHT22;12773;50.162;8.548;2023-03-20T06:55:50;12.80;99.90
24638;DHT22;12773;50.162;8.548;2023-03-20T06:58:37;12.80;99.90
24638;DHT22;12773;50.162;8.548;2023-03-20T07:01:25;12.90;99.90
24638;DHT22;12773;50.162;8.548;2023-03-20T07:04:13;13.00;99.90
24638;DHT22;12773;50.162;8.548;2023-03-20T07:07:00;13.00;99.90
24638;DHT22;12773;50.162;8.548;2023-03-20T07:09:48;13.10;99.90
24638;DHT22;12773;50.162;8.548;2023-03-20T07:12:35;13.10;99.90
24638;DHT22;12773;50.162;8.548;2023-03-20T07:15:23;13.10;99.90
24638;DHT22;12773;50.162;8.548;2023-03-20T07:18:10;13.00;99.90
24638;DHT22;12773;50.162;8.548;2023-03-20T07:21:00;13.00;99.90
24638;DHT22;12773;50.162;8.548;2023-03-20T07:23:48;13.00;99.90
24638;DHT22;12773;50.162;8.548;2023-03-20T07:26:35;13.10;99.90
24638;DHT22;12773;50.162;8.548;2023-03-20T07:29:22;13.20;99.90
24638;DHT22;12773;50.162;8.548;2023-03-20T07:32:10;13.30;99.90
24638;DHT22;12773;50.162;8.548;2023-03-20T07:34:57;13.20;99.90
24638;DHT22;12773;50.162;8.548;2023-03-20T07:37:44;13.30;99.90
24638;DHT22;12773;50.162;8.548;2023-03-20T07:40:31;13.50;99.90
24638;DHT22;12773;50.162;8.548;2023-03-20T07:43:19;13.60;99.90
24638;DHT22;12773;50.162;8.548;2023-03-20T07:46:07;13.60;99.90
24638;DHT22;12773;50.162;8.548;2023-03-20T07:48:55;13.40;99.90
24638;DHT22;12773;50.162;8.548;2023-03-20T07:51:46;13.30;99.90
24638;DHT22;12773;50.162;8.548;2023-03-20T07:54:34;13.20;99.90
24638;DHT22;12773;50.162;8.548;2023-03-20T07:57:22;13.20;99.90
24638;DHT22;12773;50.162;8.548;2023-03-20T08:00:10;13.20;99.90
24638;DHT22;12773;50.162;8.548;2023-03-20T08:02:57;13.20;99.90
24638;DHT22;12773;50.162;8.548;2023-03-20T08:05:45;13.10;99.90
24638;DHT22;12773;50.162;8.548;2023-03-20T08:08:33;13.20;99.90
24638;DHT22;12773;50.162;8.548;2023-03-20T08:11:20;13.00;99.90
24638;DHT22;12773;50.162;8.548;2023-03-20T08:14:08;13.00;99.90
24638;DHT22;12773;50.162;8.548;2023-03-20T08:16:56;13.00;99.90
24638;DHT22;12773;50.162;8.548;2023-03-20T08:19:44;13.10;99.90
24638;DHT22;12773;50.162;8.548;2023-03-20T08:22:32;13.30;99.90
24638;DHT22;12773;50.162;8.548;2023-03-20T08:25:19;13.70;99.90
24638;DHT22;12773;50.162;8.548;2023-03-20T08:28:07;13.80;99.90
24638;DHT22;12773;50.162;8.548;2023-03-20T08:30:54;13.80;99.90
24638;DHT22;12773;50.162;8.548;2023-03-20T08:33:47;13.80;99.90
24638;DHT22;12773;50.162;8.548;2023-03-20T08:36:31;13.70;99.90
24638;DHT22;12773;50.162;8.548;2023-03-20T08:39:18;13.60;99.90
24638;DHT22;12773;50.162;8.548;2023-03-20T08:42:07;13.30;99.90
24638;DHT22;12773;50.162;8.548;2023-03-20T08:44:54;13.20;99.90
24638;DHT22;12773;50.162;8.548;2023-03-20T08:47:41;13.10;99.90
24638;DHT22;12773;50.162;8.548;2023-03-20T08:50:28;13.10;99.90
24638;DHT22;12773;50.162;8.548;2023-03-20T08:53:15;13.00;99.90
24638;DHT22;12773;50.162;8.548;2023-03-20T08:56:05;12.90;99.90
24638;DHT22;12773;50.162;8.548;2023-03-20T08:58:53;13.00;99.90
24638;DHT22;12773;50.162;8.548;2023-03-20T09:01:41;13.10;99.90
24638;DHT22;12773;50.162;8.548;2023-03-20T09:04:30;13.20;99.90
24638;DHT22;12773;50.162;8.548;2023-03-20T09:07:17;13.30;99.90
24638;DHT22;12773;50.162;8.548;2023-03-20T09:10:04;13.30;99.90
24638;DHT22;12773;50.162;8.548;2023-03-20T09:12:52;13.60;99.90
24638;DHT22;12773;50.162;8.548;2023-03-20T09:15:39;13.70;99.90
24638;DHT22;12773;50.162;8.548;2023-03-20T09:18:26;13.80;99.90
24638;DHT22;12773;50.162;8.548;2023-03-20T09:21:13;14.10;99.90
24638;DHT22;12773;50.162;8.548;2023-03-20T09:24:01;14.10;99.90
24638;DHT22;12773;50.162;8.548;2023-03-20T09:26:48;13.90;99.90
24638;DHT22;12773;50.162;8.548;2023-03-20T09:29:36;14.10;99.90
24638;DHT22;12773;50.162;8.548;2023-03-20T09:32:23;14.20;99.90
24638;DHT22;12773;50.162;8.548;2023-03-20T09:35:11;14.60;99.90
24638;DHT22;12773;50.162;8.548;2023-03-20T09:37:58;15.00;99.90
24638;DHT22;12773;50.162;8.548;2023-03-20T09:41:02;15.40;99.90
24638;DHT22;12773;50.162;8.548;2023-03-20T09:53:21;15.70;99.90
24638;DHT22;12773;50.162;8.548;2023-03-20T09:56:13;15.50;99.90
24638;DHT22;12773;50.162;8.548;2023-03-20T09:59:01;15.40;99.90
24638;DHT22;12773;50.162;8.548;2023-03-20T10:01:53;15.20;99.90
24638;DHT22;12773;50.162;8.548;2023-03-20T10:04:43;15.20;99.90
24638;DHT22;12773;50.162;8.548;2023-03-20T10:07:31;15.10;99.90
24638;DHT22;12773;50.162;8.548;2023-03-20T10:10:21;15.30;99.90
24638;DHT22;12773;50.162;8.548;2023-03-20T10:19:51;15.20;99.90
24638;DHT22;12773;50.162;8.548;2023-03-20T10:22:48;15.20;99.90
24638;DHT22;12773;50.162;8.548;2023-03-20T10:25:34;15.20;99.90
24638;DHT22;12773;50.162;8.548;2023-03-20T10:28:35;15.60;99.90
24638;DHT22;12773;50.162;8.548;2023-03-20T10:31:39;15.40;99.90
24638;DHT22;12773;50.162;8.548;2023-03-20T10:40:34;14.90;99.90
24638;DHT22;12773;50.162;8.548;2023-03-20T10:43:31;14.70;99.90
24638;DHT22;12773;50.162;8.548;2023-03-20T10:46:32;14.70;99.90
24638;DHT22;12773;50.162;8.548;2023-03-20T10:49:52;14.60;99.90
24638;DHT22;12773;50.162;8.548;2023-03-20T10:52:39;14.90;99.90
24638;DHT22;12773;50.162;8.548;2023-03-20T10:55:38;15.20;99.90
24638;DHT22;12773;50.162;8.548;2023-03-20T10:58:29;15.60;99.90
24638;DHT22;12773;50.162;8.548;2023-03-20T11:01:17;16.10;99.90
24638;DHT22;12773;50.162;8.548;2023-03-20T11:04:05;16.30;99.90
24638;DHT22;12773;50.162;8.548;2023-03-20T11:07:22;16.60;99.90
24638;DHT22;12773;50.162;8.548;2023-03-20T11:10:13;17.30;99.90
24638;DHT22;12773;50.162;8.548;2023-03-20T11:13:29;17.30;99.90
24638;DHT22;12773;50.162;8.548;2023-03-20T11:16:23;16.60;99.90
24638;DHT22;12773;50.162;8.548;2023-03-20T11:19:11;16.20;99.90
24638;DHT22;12773;50.162;8.548;2023-03-20T11:22:24;16.20;99.90
24638;DHT22;12773;50.162;8.548;2023-03-20T11:24:57;16.20;99.90
24638;DHT22;12773;50.162;8.548;2023-03-20T11:27:46;15.90;99.90
24638;DHT22;12773;50.162;8.548;2023-03-20T11:30:42;15.80;99.90
24638;DHT22;12773;50.162;8.548;2023-03-20T11:33:28;15.70;99.90
24638;DHT22;12773;50.162;8.548;2023-03-20T11:36:22;15.70;99.90
24638;DHT22;12773;50.162;8.548;2023-03-20T11:39:15;15.80;99.90
24638;DHT22;12773;50.162;8.548;2023-03-20T11:42:18;15.90;99.90
24638;DHT22;12773;50.162;8.548;2023-03-20T11:45:02;15.90;99.90
24638;DHT22;12773;50.162;8.548;2023-03-20T11:47:52;15.90;99.90
24638;DHT22;12773;50.162;8.548;2023-03-20T11:56:35;16.00;99.90
24638;DHT22;12773;50.162;8.548;2023-03-20T11:59:29;16.50;99.90
24638;DHT22;12773;50.162;8.548;2023-03-20T12:02:21;17.10;99.90
24638;DHT22;12773;50.162;8.548;2023-03-20T12:05:16;17.10;99.90
24638;DHT22;12773;50.162;8.548;2023-03-20T12:08:22;17.20;99.90
24638;DHT22;12773;50.162;8.548;2023-03-20T12:10:56;17.20;99.90
24638;DHT22;12773;50.162;8.548;2023-03-20T12:13:43;17.30;99.90
24638;DHT22;12773;50.162;8.548;2023-03-20T12:16:34;17.60;99.90
24638;DHT22;12773;50.162;8.548;2023-03-20T12:19:24;17.30;99.90
24638;DHT22;12773;50.162;8.548;2023-03-20T12:22:40;17.20;99.90
24638;DHT22;12773;50.162;8.548;2023-03-20T12:25:22;16.70;99.90
24638;DHT22;12773;50.162;8.548;2023-03-20T12:28:24;16.20;99.90
24638;DHT22;12773;50.162;8.548;2023-03-20T12:31:29;16.20;99.90
24638;DHT22;12773;50.162;8.548;2023-03-20T12:37:11;16.20;99.90
24638;DHT22;12773;50.162;8.548;2023-03-20T12:40:03;16.10;99.90
24638;DHT22;12773;50.162;8.548;2023-03-20T12:43:02;15.80;99.90
24638;DHT22;12773;50.162;8.548;2023-03-20T12:45:56;15.60;99.90
24638;DHT22;12773;50.162;8.548;2023-03-20T12:48:52;15.90;99.90
24638;DHT22;12773;50.162;8.548;2023-03-20T12:54:48;16.00;99.90
24638;DHT22;12773;50.162;8.548;2023-03-20T12:57:41;15.80;99.90
24638;DHT22;12773;50.162;8.548;2023-03-20T13:00:39;15.90;99.90
24638;DHT22;12773;50.162;8.548;2023-03-20T13:06:25;15.90;99.90
24638;DHT22;12773;50.162;8.548;2023-03-20T13:21:15;15.20;99.90
24638;DHT22;12773;50.162;8.548;2023-03-20T13:27:20;15.20;99.90
24638;DHT22;12773;50.162;8.548;2023-03-20T13:30:30;15.00;99.90
24638;DHT22;12773;50.162;8.548;2023-03-20T13:36:44;14.80;99.90
24638;DHT22;12773;50.162;8.548;2023-03-20T13:39:46;15.00;99.90
24638;DHT22;12773;50.162;8.548;2023-03-20T13:42:37;15.10;99.90
24638;DHT22;12773;50.162;8.548;2023-03-20T13:45:33;15.30;99.90
24638;DHT22;12773;50.162;8.548;2023-03-20T13:51:32;15.20;99.90
24638;DHT22;12773;50.162;8.548;2023-03-20T13:57:48;15.00;99.90
24638;DHT22;12773;50.162;8.548;2023-03-20T14:03:52;15.00;99.90
24638;DHT22;12773;50.162;8.548;2023-03-20T14:06:51;15.10;99.90
24638;DHT22;12773;50.162;8.548;2023-03-20T14:09:39;15.10;99.90
24638;DHT22;12773;50.162;8.548;2023-03-20T14:12:27;15.10;99.90
24638;DHT22;12773;50.162;8.548;2023-03-20T14:15:18;15.10;99.90
24638;DHT22;12773;50.162;8.548;2023-03-20T14:18:10;15.10;99.90
24638;DHT22;12773;50.162;8.548;2023-03-20T14:21:00;15.40;99.90
24638;DHT22;12773;50.162;8.548;2023-03-20T14:23:49;15.60;99.90
24638;DHT22;12773;50.162;8.548;2023-03-20T14:26:38;15.60;99.90
24638;DHT22;12773;50.162;8.548;2023-03-20T14:29:35;15.80;99.90
24638;DHT22;12773;50.162;8.548;2023-03-20T14:32:31;15.70;99.90
24638;DHT22;12773;50.162;8.548;2023-03-20T14:35:26;15.40;99.90
24638;DHT22;12773;50.162;8.548;2023-03-20T14:38:25;15.30;99.90
24638;DHT22;12773;50.162;8.548;2023-03-20T14:41:36;15.30;99.90
24638;DHT22;12773;50.162;8.548;2023-03-20T14:54:23;15.00;99.90
24638;DHT22;12773;50.162;8.548;2023-03-20T14:57:25;15.00;99.90
24638;DHT22;12773;50.162;8.548;2023-03-20T15:00:15;14.90;99.90
24638;DHT22;12773;50.162;8.548;2023-03-20T15:03:06;15.10;99.90
24638;DHT22;12773;50.162;8.548;2023-03-20T15:06:00;15.20;99.90
24638;DHT22;12773;50.162;8.548;2023-03-20T15:08:46;15.00;99.90
24638;DHT22;12773;50.162;8.548;2023-03-20T15:11:34;15.10;99.90
24638;DHT22;12773;50.162;8.548;2023-03-20T15:14:26;15.20;99.90
24638;DHT22;12773;50.162;8.548;2023-03-20T15:17:20;15.20;99.90
24638;DHT22;12773;50.162;8.548;2023-03-20T15:20:21;15.10;99.90
24638;DHT22;12773;50.162;8.548;2023-03-20T15:23:04;15.00;99.90
24638;DHT22;12773;50.162;8.548;2023-03-20T15:25:51;15.00;99.90
24638;DHT22;12773;50.162;8.548;2023-03-20T15:28:38;15.00;99.90
24638;DHT22;12773;50.162;8.548;2023-03-20T15:31:30;15.00;99.90
24638;DHT22;12773;50.162;8.548;2023-03-20T15:34:20;14.80;99.90
24638;DHT22;12773;50.162;8.548;2023-03-20T15:37:12;14.80;99.50
24638;DHT22;12773;50.162;8.548;2023-03-20T15:39:58;14.70;98.80
24638;DHT22;12773;50.162;8.548;2023-03-20T15:42:57;14.60;99.40
24638;DHT22;12773;50.162;8.548;2023-03-20T15:45:44;14.30;99.50
24638;DHT22;12773;50.162;8.548;2023-03-20T15:48:32;14.30;99.30
24638;DHT22;12773;50.162;8.548;2023-03-20T15:51:21;14.20;97.90
24638;DHT22;12773;50.162;8.548;2023-03-20T15:54:14;14.00;98.10
24638;DHT22;12773;50.162;8.548;2023-03-20T15:57:03;14.00;98.20
24638;DHT22;12773;50.162;8.548;2023-03-20T15:59:51;14.10;97.90
24638;DHT22;12773;50.162;8.548;2023-03-20T16:02:39;14.40;98.10
24638;DHT22;12773;50.162;8.548;2023-03-20T16:05:28;14.40;98.10
24638;DHT22;12773;50.162;8.548;2023-03-20T16:08:27;14.60;95.40
24638;DHT22;12773;50.162;8.548;2023-03-20T16:11:16;14.60;94.10
24638;DHT22;12773;50.162;8.548;2023-03-20T16:14:06;14.60;94.80
24638;DHT22;12773;50.162;8.548;2023-03-20T16:16:55;14.70;94.80
24638;DHT22;12773;50.162;8.548;2023-03-20T16:19:43;14.60;94.60
24638;DHT22;12773;50.162;8.548;2023-03-20T16:22:32;14.60;95.00
24638;DHT22;12773;50.162;8.548;2023-03-20T16:25:19;14.40;94.40
24638;DHT22;12773;50.162;8.548;2023-03-20T16:28:06;14.30;94.50
24638;DHT22;12773;50.162;8.548;2023-03-20T16:31:01;14.10;94.80
24638;DHT22;12773;50.162;8.548;2023-03-20T16:33:44;14.20;95.20
24638;DHT22;12773;50.162;8.548;2023-03-20T16:36:35;14.20;95.40
24638;DHT22;12773;50.162;8.548;2023-03-20T16:39:25;14.30;94.70
24638;DHT22;12773;50.162;8.548;2023-03-20T16:42:24;14.30;94.90
24638;DHT22;12773;50.162;8.548;2023-03-20T16:45:24;14.30;94.00
24638;DHT22;12773;50.162;8.548;2023-03-20T16:51:19;14.10;94.10
24638;DHT22;12773;50.162;8.548;2023-03-20T16:54:17;14.20;94.70
24638;DHT22;12773;50.162;8.548;2023-03-20T16:56:59;13.90;93.90
24638;DHT22;12773;50.162;8.548;2023-03-20T16:59:49;13.70;94.60
24638;DHT22;12773;50.162;8.548;2023-03-20T17:02:39;13.50;94.80
24638;DHT22;12773;50.162;8.548;2023-03-20T17:05:33;13.50;95.00
24638;DHT22;12773;50.162;8.548;2023-03-20T17:08:26;13.40;95.10
24638;DHT22;12773;50.162;8.548;2023-03-20T17:11:29;13.20;95.60
24638;DHT22;12773;50.162;8.548;2023-03-20T17:14:16;13.30;96.10
24638;DHT22;12773;50.162;8.548;2023-03-20T17:17:07;13.40;96.30
24638;DHT22;12773;50.162;8.548;2023-03-20T17:19:52;13.50;96.40
24638;DHT22;12773;50.162;8.548;2023-03-20T17:22:39;13.60;97.00
24638;DHT22;12773;50.162;8.548;2023-03-20T17:25:27;13.50;96.90
24638;DHT22;12773;50.162;8.548;2023-03-20T17:28:17;13.50;97.70
24638;DHT22;12773;50.162;8.548;2023-03-20T17:31:05;13.50;97.40
24638;DHT22;12773;50.162;8.548;2023-03-20T17:33:53;13.40;98.10
24638;DHT22;12773;50.162;8.548;2023-03-20T17:36:40;13.50;98.90
24638;DHT22;12773;50.162;8.548;2023-03-20T17:39:27;13.40;98.10
24638;DHT22;12773;50.162;8.548;2023-03-20T17:42:16;13.50;98.80
24638;DHT22;12773;50.162;8.548;2023-03-20T17:45:07;13.50;98.40
24638;DHT22;12773;50.162;8.548;2023-03-20T17:47:55;13.60;99.00
24638;DHT22;12773;50.162;8.548;2023-03-20T17:50:43;13.50;99.20
24638;DHT22;12773;50.162;8.548;2023-03-20T17:53:31;13.50;99.30
24638;DHT22;12773;50.162;8.548;2023-03-20T17:56:18;13.50;99.50
24638;DHT22;12773;50.162;8.548;2023-03-20T17:59:08;13.50;99.20
24638;DHT22;12773;50.162;8.548;2023-03-20T18:01:54;13.50;99.30
24638;DHT22;12773;50.162;8.548;2023-03-20T18:04:42;13.50;99.50
24638;DHT22;12773;50.162;8.548;2023-03-20T18:07:30;13.50;99.40
24638;DHT22;12773;50.162;8.548;2023-03-20T18:10:27;13.50;99.60
24638;DHT22;12773;50.162;8.548;2023-03-20T18:13:13;13.40;99.50
24638;DHT22;12773;50.162;8.548;2023-03-20T18:16:02;13.30;99.90
24638;DHT22;12773;50.162;8.548;2023-03-20T18:18:51;13.10;99.90
24638;DHT22;12773;50.162;8.548;2023-03-20T18:21:39;13.10;99.90
24638;DHT22;12773;50.162;8.548;2023-03-20T18:24:26;13.00;99.90
24638;DHT22;12773;50.162;8.548;2023-03-20T18:27:14;12.90;99.90
24638;DHT22;12773;50.162;8.548;2023-03-20T18:30:02;12.80;99.90
24638;DHT22;12773;50.162;8.548;2023-03-20T18:32:49;12.70;99.90
24638;DHT22;12773;50.162;8.548;2023-03-20T18:35:36;12.40;99.90
24638;DHT22;12773;50.162;8.548;2023-03-20T18:38:24;12.30;99.90
24638;DHT22;12773;50.162;8.548;2023-03-20T18:41:13;12.30;99.90
24638;DHT22;12773;50.162;8.548;2023-03-20T18:44:01;12.30;99.90
24638;DHT22;12773;50.162;8.548;2023-03-20T18:46:48;12.30;99.90
24638;DHT22;12773;50.162;8.548;2023-03-20T18:49:36;12.20;99.90
24638;DHT22;12773;50.162;8.548;2023-03-20T18:52:23;12.30;99.90
24638;DHT22;12773;50.162;8.548;2023-03-20T18:55:11;12.30;99.90
24638;DHT22;12773;50.162;8.548;2023-03-20T18:57:59;12.30;99.90
24638;DHT22;12773;50.162;8.548;2023-03-20T19:00:52;12.30;99.90
24638;DHT22;12773;50.162;8.548;2023-03-20T19:03:40;12.30;99.90
24638;DHT22;12773;50.162;8.548;2023-03-20T19:06:29;12.50;99.90
24638;DHT22;12773;50.162;8.548;2023-03-20T19:09:17;12.50;99.90
24638;DHT22;12773;50.162;8.548;2023-03-20T19:12:04;12.60;99.90
24638;DHT22;12773;50.162;8.548;2023-03-20T19:14:52;12.60;99.90
24638;DHT22;12773;50.162;8.548;2023-03-20T19:17:39;12.70;99.90
24638;DHT22;12773;50.162;8.548;2023-03-20T19:20:40;12.80;99.90
24638;DHT22;12773;50.162;8.548;2023-03-20T19:23:28;12.70;99.90
24638;DHT22;12773;50.162;8.548;2023-03-20T19:26:18;12.70;99.90
24638;DHT22;12773;50.162;8.548;2023-03-20T19:29:06;12.70;99.90
24638;DHT22;12773;50.162;8.548;2023-03-20T19:31:55;12.70;99.90
24638;DHT22;12773;50.162;8.548;2023-03-20T19:34:43;12.80;99.90
24638;DHT22;12773;50.162;8.548;2023-03-20T19:37:32;12.80;99.90
24638;DHT22;12773;50.162;8.548;2023-03-20T19:40:22;12.80;99.90
24638;DHT22;12773;50.162;8.548;2023-03-20T19:43:10;12.90;99.90
24638;DHT22;12773;50.162;8.548;2023-03-20T19:46:01;12.90;99.90
24638;DHT22;12773;50.162;8.548;2023-03-20T19:48:48;12.80;99.90
24638;DHT22;12773;50.162;8.548;2023-03-20T19:51:36;12.70;99.90
24638;DHT22;12773;50.162;8.548;2023-03-20T19:54:24;12.70;99.90